Time;durP1;ratioP1;P1;durP2;ratioP2;P2;SDS_P1;SDS_P2;PMS_P1;PMS_P2;Temp;Humidity;BMP_temperature;BMP_pressure;BME280_temperature;BME280_humidity;BME280_pressure;Samples;Min_cycle;Max_cycle;Signal;HPM_P1;HPM_P2
2023/08/13 00:01:34;;;;;;;9.65;2.67;;;16.50;99.90;;;;;;5075951;28;20044;-75
2023/08/13 00:04:00;;;;;;;10.75;2.75;;;16.50;99.90;;;;;;5086585;28;20084;-75
2023/08/13 00:06:25;;;;;;;9.52;2.75;;;16.50;99.90;;;;;;5073273;28;20032;-75
2023/08/13 00:08:51;;;;;;;6.75;2.45;;;16.50;99.90;;;;;;5071067;28;20410;-75
2023/08/13 00:11:16;;;;;;;8.43;2.75;;;16.50;99.90;;;;;;5065958;28;20476;-75
2023/08/13 00:13:42;;;;;;;10.27;2.08;;;16.50;99.90;;;;;;5066683;28;20055;-75
2023/08/13 00:16:08;;;;;;;10.20;2.88;;;16.50;99.90;;;;;;5066340;28;20415;-75
2023/08/13 00:18:34;;;;;;;11.05;2.65;;;16.50;99.90;;;;;;5072363;28;20150;-76
2023/08/13 00:20:59;;;;;;;8.65;2.42;;;16.50;99.90;;;;;;5066459;28;20036;-75
2023/08/13 00:23:25;;;;;;;10.27;2.55;;;16.50;99.90;;;;;;5076987;28;20032;-75
2023/08/13 00:25:51;;;;;;;8.50;2.55;;;16.50;99.90;;;;;;5066418;28;20440;-75
2023/08/13 00:28:17;;;;;;;9.55;2.30;;;16.50;99.90;;;;;;5063105;28;20162;-75
2023/08/13 00:30:43;;;;;;;15.98;2.70;;;16.50;99.90;;;;;;5066277;28;20123;-75
2023/08/13 00:33:08;;;;;;;9.02;2.05;;;16.40;99.90;;;;;;5063131;28;20048;-76
2023/08/13 00:35:34;;;;;;;11.30;2.92;;;16.50;99.90;;;;;;5070773;28;20040;-76
2023/08/13 00:37:59;;;;;;;8.93;2.15;;;16.50;99.90;;;;;;5074333;28;20637;-76
2023/08/13 00:40:25;;;;;;;7.47;2.15;;;16.50;99.90;;;;;;5070119;28;20461;-75
2023/08/13 00:42:50;;;;;;;9.57;2.60;;;16.50;99.90;;;;;;5091556;28;20028;-76
2023/08/13 00:45:16;;;;;;;7.95;2.35;;;16.40;99.90;;;;;;5061569;28;20119;-77
2023/08/13 00:47:43;;;;;;;8.45;2.67;;;16.40;99.90;;;;;;5070168;28;20181;-77
2023/08/13 00:50:09;;;;;;;6.72;2.13;;;16.40;99.90;;;;;;5073415;28;20040;-76
2023/08/13 00:52:35;;;;;;;9.50;2.53;;;16.30;99.90;;;;;;5074445;28;20487;-76
2023/08/13 00:55:01;;;;;;;8.77;2.50;;;16.20;99.90;;;;;;5069500;28;20073;-75
2023/08/13 00:57:26;;;;;;;8.52;2.53;;;16.30;99.90;;;;;;5073696;28;20032;-75
2023/08/13 00:59:52;;;;;;;10.88;2.90;;;16.20;99.90;;;;;;5065143;28;20115;-75
2023/08/13 01:02:19;;;;;;;10.98;2.40;;;16.20;99.90;;;;;;5066315;28;20090;-75
2023/08/13 01:04:45;;;;;;;9.05;2.67;;;16.20;99.90;;;;;;5066249;28;20036;-76
2023/08/13 01:07:31;;;;;;;7.72;2.70;;;16.20;99.90;;;;;;5070007;28;20120;-75
2023/08/13 01:10:20;;;;;;;9.85;2.88;;;16.10;99.90;;;;;;5068252;28;20495;-75
2023/08/13 01:13:13;;;;;;;11.50;2.38;;;16.10;99.90;;;;;;5063787;28;20376;-75
2023/08/13 01:15:42;;;;;;;12.48;2.78;;;16.20;99.90;;;;;;5066898;28;20068;-76
2023/08/13 01:18:08;;;;;;;11.48;3.05;;;16.20;99.90;;;;;;5061578;28;20039;-75
2023/08/13 01:20:41;;;;;;;9.65;2.33;;;16.20;99.90;;;;;;5073643;28;20503;-75
2023/08/13 01:23:07;;;;;;;10.13;2.77;;;16.20;99.90;;;;;;5072491;28;20044;-75
2023/08/13 01:25:33;;;;;;;8.43;2.58;;;16.10;99.90;;;;;;5069369;28;20836;-75
2023/08/13 01:28:30;;;;;;;9.70;2.90;;;16.20;99.90;;;;;;5093166;28;20050;-75
2023/08/13 01:30:59;;;;;;;12.55;2.50;;;16.20;99.90;;;;;;5060892;28;20630;-76
2023/08/13 01:33:30;;;;;;;11.10;2.78;;;16.20;99.90;;;;;;5064713;28;20054;-75
2023/08/13 01:36:01;;;;;;;24.25;2.80;;;16.20;99.90;;;;;;5066124;28;20044;-75
2023/08/13 01:38:28;;;;;;;7.78;2.70;;;16.20;99.90;;;;;;5062560;28;20403;-76
2023/08/13 01:40:56;;;;;;;11.95;2.53;;;16.20;99.90;;;;;;5060737;28;20044;-75
2023/08/13 01:43:21;;;;;;;10.20;2.80;;;16.20;99.90;;;;;;5063422;28;20040;-75
2023/08/13 01:45:47;;;;;;;9.10;2.55;;;16.20;99.90;;;;;;5066854;28;20047;-76
2023/08/13 01:48:12;;;;;;;11.10;2.72;;;16.20;99.90;;;;;;5061532;28;20039;-76
2023/08/13 01:50:41;;;;;;;11.07;2.58;;;16.10;99.90;;;;;;5063895;28;20087;-75
2023/08/13 01:53:07;;;;;;;9.45;2.20;;;16.20;99.90;;;;;;5064324;28;20766;-75
2023/08/13 01:55:32;;;;;;;10.00;2.80;;;16.10;99.90;;;;;;5067568;28;20075;-75
2023/08/13 01:57:58;;;;;;;13.52;3.17;;;16.10;99.90;;;;;;5070579;28;20162;-75
2023/08/13 02:00:23;;;;;;;9.27;2.58;;;16.10;99.90;;;;;;5079792;28;20048;-75
2023/08/13 02:02:49;;;;;;;12.40;3.33;;;16.10;99.90;;;;;;5088538;28;20047;-75
2023/08/13 02:05:14;;;;;;;12.35;2.55;;;16.10;99.90;;;;;;5070731;28;20035;-76
2023/08/13 02:07:40;;;;;;;10.68;2.90;;;16.10;99.90;;;;;;5054837;28;20067;-75
2023/08/13 02:10:06;;;;;;;10.30;2.60;;;16.10;99.90;;;;;;5063612;28;20541;-76
2023/08/13 02:12:31;;;;;;;9.32;2.53;;;16.00;99.90;;;;;;5064906;28;20494;-75
2023/08/13 02:14:57;;;;;;;10.90;2.85;;;16.00;99.90;;;;;;5064599;28;20040;-75
2023/08/13 02:17:22;;;;;;;9.82;2.20;;;16.00;99.90;;;;;;5061389;28;20036;-76
2023/08/13 02:19:48;;;;;;;9.65;2.50;;;16.10;99.90;;;;;;5067266;28;20498;-75
2023/08/13 02:22:14;;;;;;;10.60;2.83;;;16.10;99.90;;;;;;5053890;28;20043;-76
2023/08/13 02:24:39;;;;;;;9.13;2.88;;;16.00;99.90;;;;;;5069441;28;20546;-76
2023/08/13 02:27:05;;;;;;;10.40;3.28;;;16.00;99.90;;;;;;5059512;28;20040;-75
2023/08/13 02:29:30;;;;;;;9.70;2.55;;;16.00;99.90;;;;;;5065561;28;20036;-76
2023/08/13 02:31:56;;;;;;;11.88;2.90;;;16.00;99.90;;;;;;5059568;28;20115;-76
2023/08/13 02:34:25;;;;;;;10.23;3.22;;;16.00;99.90;;;;;;5063392;28;20043;-75
2023/08/13 02:36:51;;;;;;;9.90;2.78;;;16.00;99.90;;;;;;5064439;28;20047;-75
2023/08/13 02:39:17;;;;;;;14.45;3.28;;;16.00;99.90;;;;;;5062106;28;20653;-76
2023/08/13 02:41:42;;;;;;;14.77;3.92;;;16.00;99.90;;;;;;5064278;28;20081;-76
2023/08/13 02:44:08;;;;;;;10.90;3.03;;;15.90;99.90;;;;;;5060278;28;20066;-76
2023/08/13 02:46:33;;;;;;;7.78;2.72;;;15.90;99.90;;;;;;5060198;28;20059;-76
2023/08/13 02:48:59;;;;;;;12.85;3.10;;;15.90;99.90;;;;;;5069036;28;20032;-76
2023/08/13 02:51:25;;;;;;;7.93;2.78;;;15.90;99.90;;;;;;5070289;28;20070;-76
2023/08/13 02:53:51;;;;;;;11.75;2.60;;;15.90;99.90;;;;;;5073001;28;20136;-76
2023/08/13 02:56:18;;;;;;;10.73;2.78;;;15.90;99.90;;;;;;5089293;28;20036;-76
2023/08/13 02:58:43;;;;;;;14.23;3.08;;;15.90;99.90;;;;;;5068781;28;20052;-75
2023/08/13 03:01:10;;;;;;;9.10;2.95;;;15.90;99.90;;;;;;5053784;28;20113;-75
2023/08/13 03:03:35;;;;;;;11.13;2.85;;;15.80;99.90;;;;;;5076024;28;20574;-76
2023/08/13 03:06:01;;;;;;;9.55;3.08;;;15.80;99.90;;;;;;5062048;28;20131;-76
2023/08/13 03:08:26;;;;;;;13.80;3.08;;;15.80;99.90;;;;;;5071655;28;20064;-76
2023/08/13 03:10:52;;;;;;;8.10;2.80;;;15.70;99.90;;;;;;5076114;28;20045;-76
2023/08/13 03:13:17;;;;;;;13.07;2.92;;;15.70;99.90;;;;;;5075853;28;20040;-76
2023/08/13 03:15:44;;;;;;;12.60;2.95;;;15.70;99.90;;;;;;5076803;28;20031;-76
2023/08/13 03:18:10;;;;;;;11.02;2.90;;;15.70;99.90;;;;;;5075849;28;20123;-75
2023/08/13 03:20:35;;;;;;;11.10;3.00;;;15.70;99.90;;;;;;5074159;28;20135;-76
2023/08/13 03:23:01;;;;;;;11.77;3.25;;;15.70;99.90;;;;;;5074260;28;20036;-76
2023/08/13 03:25:27;;;;;;;12.57;3.15;;;15.70;99.90;;;;;;5074040;28;20462;-76
2023/08/13 03:27:52;;;;;;;8.07;2.80;;;15.70;99.90;;;;;;5073571;28;20074;-75
2023/08/13 03:30:18;;;;;;;12.13;3.00;;;15.70;99.90;;;;;;5058195;28;20131;-76
2023/08/13 03:32:43;;;;;;;11.85;2.90;;;15.60;99.90;;;;;;5059915;28;20440;-76
2023/08/13 03:35:09;;;;;;;11.00;2.97;;;15.60;99.90;;;;;;5091096;28;20126;-76
2023/08/13 03:37:34;;;;;;;15.13;3.30;;;15.60;99.90;;;;;;5072961;28;20068;-76
2023/08/13 03:40:00;;;;;;;14.40;2.95;;;15.60;99.90;;;;;;5071857;28;20036;-75
2023/08/13 03:42:25;;;;;;;8.02;2.80;;;15.60;99.90;;;;;;5072317;28;20757;-76
2023/08/13 03:44:51;;;;;;;9.00;2.88;;;15.50;99.90;;;;;;5072410;28;20040;-76
2023/08/13 03:47:17;;;;;;;14.38;3.83;;;15.50;99.90;;;;;;5071439;28;20135;-75
2023/08/13 03:49:42;;;;;;;12.90;3.85;;;15.50;99.90;;;;;;5072447;28;20040;-76
2023/08/13 03:52:10;;;;;;;12.07;3.10;;;15.50;99.90;;;;;;5072906;28;20126;-76
2023/08/13 03:54:36;;;;;;;9.55;3.17;;;15.50;99.90;;;;;;5071787;28;20032;-75
2023/08/13 03:57:02;;;;;;;12.65;3.78;;;15.50;99.90;;;;;;5073451;28;20070;-76
2023/08/13 03:59:27;;;;;;;12.20;3.13;;;15.60;99.90;;;;;;5075288;28;20032;-76
2023/08/13 04:01:53;;;;;;;11.57;3.30;;;15.60;99.90;;;;;;5068701;28;20045;-76
2023/08/13 04:04:18;;;;;;;16.17;3.30;;;15.60;99.90;;;;;;5074948;28;20084;-76
2023/08/13 04:06:44;;;;;;;11.77;3.33;;;15.60;99.90;;;;;;5073849;28;20040;-76
2023/08/13 04:09:10;;;;;;;18.98;3.70;;;15.70;99.90;;;;;;5074342;28;20051;-76
2023/08/13 04:11:35;;;;;;;8.70;3.10;;;15.70;99.90;;;;;;5075444;28;20039;-76
2023/08/13 04:14:01;;;;;;;11.63;3.10;;;15.70;99.90;;;;;;5076717;28;20051;-76
2023/08/13 04:16:27;;;;;;;10.82;3.03;;;15.80;99.90;;;;;;5073313;28;20530;-76
2023/08/13 04:18:52;;;;;;;14.43;3.60;;;15.80;99.90;;;;;;5075348;28;20044;-76
2023/08/13 04:21:18;;;;;;;13.10;3.28;;;15.80;99.90;;;;;;5074230;28;20055;-76
2023/08/13 04:23:44;;;;;;;9.90;2.88;;;15.90;99.90;;;;;;5058362;28;20036;-76
2023/08/13 04:26:09;;;;;;;14.48;3.25;;;15.90;99.90;;;;;;5075227;28;20055;-76
2023/08/13 04:28:35;;;;;;;11.90;2.90;;;16.00;99.90;;;;;;5066417;28;20051;-76
2023/08/13 04:31:01;;;;;;;11.45;3.25;;;16.00;99.90;;;;;;5072964;28;20054;-76
2023/08/13 04:33:26;;;;;;;12.57;3.15;;;16.00;99.90;;;;;;5086899;28;20036;-76
2023/08/13 04:35:53;;;;;;;10.40;3.67;;;16.00;99.90;;;;;;5074574;28;20058;-76
2023/08/13 04:38:19;;;;;;;14.75;3.40;;;16.00;99.90;;;;;;5075027;28;20414;-77
2023/08/13 04:40:48;;;;;;;11.45;3.33;;;16.10;99.90;;;;;;5075161;28;20082;-76
2023/08/13 04:43:15;;;;;;;11.00;3.50;;;16.10;99.90;;;;;;5074836;28;20036;-77
2023/08/13 04:45:44;;;;;;;10.80;3.67;;;16.10;99.90;;;;;;5067764;28;20086;-76
2023/08/13 04:48:09;;;;;;;15.32;3.65;;;16.10;99.90;;;;;;5074723;28;20036;-75
2023/08/13 04:50:35;;;;;;;10.05;3.03;;;16.00;99.90;;;;;;5069070;28;20097;-77
2023/08/13 04:53:00;;;;;;;10.00;3.47;;;16.10;99.90;;;;;;5073303;28;20418;-76
2023/08/13 04:55:26;;;;;;;12.85;3.47;;;16.10;99.90;;;;;;5073777;28;20048;-76
2023/08/13 04:57:51;;;;;;;12.95;3.22;;;16.10;99.90;;;;;;5074018;28;20043;-76
2023/08/13 05:00:17;;;;;;;11.73;3.20;;;16.10;99.90;;;;;;5057404;28;20052;-76
2023/08/13 05:02:42;;;;;;;13.82;3.40;;;16.20;99.90;;;;;;5069480;28;20503;-76
2023/08/13 05:05:08;;;;;;;10.90;2.97;;;16.20;99.90;;;;;;5070955;28;20044;-76
2023/08/13 05:07:33;;;;;;;12.23;3.72;;;16.20;99.90;;;;;;5066258;28;20411;-76
2023/08/13 05:09:59;;;;;;;9.50;3.28;;;16.20;99.90;;;;;;5074399;28;20036;-76
2023/08/13 05:12:24;;;;;;;9.63;3.42;;;16.20;99.90;;;;;;5074405;28;20032;-76
2023/08/13 05:14:50;;;;;;;10.60;3.30;;;16.20;99.90;;;;;;5074278;28;20040;-76
2023/08/13 05:17:20;;;;;;;12.45;3.15;;;16.30;99.90;;;;;;5092111;28;20507;-75
2023/08/13 05:19:46;;;;;;;10.68;3.45;;;16.30;99.90;;;;;;5065298;28;20040;-76
2023/08/13 05:22:11;;;;;;;11.63;3.63;;;16.40;99.90;;;;;;5065248;28;20052;-75
2023/08/13 05:24:37;;;;;;;11.10;3.20;;;16.40;99.90;;;;;;5067189;28;20055;-76
2023/08/13 05:27:03;;;;;;;10.20;3.38;;;16.50;99.90;;;;;;5078089;28;20416;-77
2023/08/13 05:29:29;;;;;;;11.82;3.80;;;16.50;99.90;;;;;;5070058;28;20036;-76
2023/08/13 05:31:54;;;;;;;11.82;3.42;;;16.50;99.90;;;;;;5067070;28;20109;-76
2023/08/13 05:34:20;;;;;;;9.90;3.22;;;16.60;99.90;;;;;;5073594;28;20051;-76
2023/08/13 05:36:45;;;;;;;13.90;3.60;;;16.60;99.90;;;;;;5070351;28;20036;-76
2023/08/13 05:39:11;;;;;;;12.82;3.47;;;16.60;99.90;;;;;;5066561;28;20132;-77
2023/08/13 05:41:37;;;;;;;11.45;3.95;;;16.70;99.90;;;;;;5066282;28;20084;-75
2023/08/13 05:44:03;;;;;;;8.35;3.08;;;16.70;99.90;;;;;;5066685;28;20064;-77
2023/08/13 05:46:28;;;;;;;10.43;3.50;;;16.70;99.90;;;;;;5066963;28;20036;-76
2023/08/13 05:48:54;;;;;;;13.27;3.67;;;16.80;99.90;;;;;;5063234;28;20036;-76
2023/08/13 05:51:20;;;;;;;10.90;3.10;;;16.70;99.90;;;;;;5070079;28;20047;-76
2023/08/13 05:53:45;;;;;;;9.73;3.22;;;16.80;99.90;;;;;;5070766;28;20126;-77
2023/08/13 05:56:11;;;;;;;9.90;3.50;;;16.80;99.90;;;;;;5069598;28;20036;-76
2023/08/13 05:58:36;;;;;;;9.52;3.08;;;16.70;99.90;;;;;;5070482;28;20036;-75
2023/08/13 06:01:03;;;;;;;12.85;3.78;;;16.80;99.90;;;;;;5069783;28;20515;-76
2023/08/13 06:03:28;;;;;;;11.27;4.13;;;16.80;99.90;;;;;;5070860;28;20051;-75
2023/08/13 06:05:55;;;;;;;11.15;3.45;;;16.80;99.90;;;;;;5070685;28;20645;-76
2023/08/13 06:08:20;;;;;;;11.95;3.70;;;16.80;99.90;;;;;;5071813;28;20057;-75
2023/08/13 06:10:46;;;;;;;14.93;3.10;;;16.80;99.90;;;;;;5073244;28;20403;-76
2023/08/13 06:13:12;;;;;;;12.88;3.95;;;16.80;99.90;;;;;;5072176;28;20044;-76
2023/08/13 06:15:38;;;;;;;16.00;3.72;;;16.70;99.90;;;;;;5073038;28;20093;-76
2023/08/13 06:18:03;;;;;;;13.63;3.55;;;16.70;99.90;;;;;;5072840;28;20036;-76
2023/08/13 06:20:30;;;;;;;11.02;3.10;;;16.70;99.90;;;;;;5071895;28;20036;-76
2023/08/13 06:22:56;;;;;;;14.75;3.72;;;16.70;99.90;;;;;;5072682;28;20036;-76
2023/08/13 06:25:21;;;;;;;10.55;3.70;;;16.80;99.90;;;;;;5070904;28;20046;-76
2023/08/13 06:27:47;;;;;;;12.20;4.18;;;16.80;99.90;;;;;;5056366;28;20829;-76
2023/08/13 06:30:12;;;;;;;12.43;3.72;;;17.00;99.90;;;;;;5071208;28;20052;-76
2023/08/13 06:32:38;;;;;;;11.73;3.63;;;17.10;99.90;;;;;;5064573;28;20032;-76
2023/08/13 06:35:04;;;;;;;11.77;3.47;;;17.30;99.90;;;;;;5075134;28;20067;-76
2023/08/13 06:37:30;;;;;;;14.57;3.85;;;17.50;99.90;;;;;;5072072;28;20126;-76
2023/08/13 06:39:55;;;;;;;9.50;3.17;;;17.70;99.90;;;;;;5074181;28;20571;-77
2023/08/13 06:42:21;;;;;;;10.00;3.53;;;18.00;99.90;;;;;;5071608;28;20399;-76
2023/08/13 06:44:47;;;;;;;13.30;3.92;;;18.10;99.90;;;;;;5051991;28;20025;-76
2023/08/13 06:47:13;;;;;;;11.35;3.53;;;18.30;99.90;;;;;;5070829;28;20125;-76
2023/08/13 06:49:38;;;;;;;11.93;3.97;;;18.40;99.90;;;;;;5070867;28;20036;-76
2023/08/13 06:52:04;;;;;;;12.40;3.58;;;18.40;99.90;;;;;;5072849;28;20048;-76
2023/08/13 06:54:30;;;;;;;12.60;3.63;;;18.20;99.90;;;;;;5069600;28;20068;-77
2023/08/13 06:56:55;;;;;;;10.35;3.67;;;18.20;99.90;;;;;;5071131;28;20403;-75
2023/08/13 06:59:21;;;;;;;10.85;3.45;;;18.20;99.90;;;;;;5054937;28;20036;-75
2023/08/13 07:01:46;;;;;;;13.57;3.28;;;18.20;99.90;;;;;;5074062;28;20059;-76
2023/08/13 07:04:12;;;;;;;14.55;3.47;;;18.20;99.90;;;;;;5072169;28;20036;-75
2023/08/13 07:06:37;;;;;;;11.57;3.40;;;18.30;99.90;;;;;;5074679;28;20044;-76
2023/08/13 07:09:03;;;;;;;11.57;3.80;;;18.50;99.90;;;;;;5072531;28;20525;-76
2023/08/13 07:11:32;;;;;;;9.23;3.13;;;18.60;99.90;;;;;;5071799;28;20036;-76
2023/08/13 07:13:58;;;;;;;12.55;3.63;;;18.80;99.90;;;;;;5072427;28;20040;-76
2023/08/13 07:16:23;;;;;;;10.27;3.30;;;18.90;99.90;;;;;;5063841;28;20135;-75
2023/08/13 07:18:49;;;;;;;12.63;3.55;;;19.10;99.90;;;;;;5073676;28;20043;-77
2023/08/13 07:21:15;;;;;;;10.45;3.50;;;19.20;99.90;;;;;;5079379;28;20045;-75
2023/08/13 07:23:40;;;;;;;14.90;3.60;;;19.30;99.90;;;;;;5068675;28;20028;-76
2023/08/13 07:26:06;;;;;;;8.93;3.15;;;19.30;99.90;;;;;;5070044;28;20411;-75
2023/08/13 07:28:35;;;;;;;10.85;3.72;;;19.40;99.90;;;;;;5069505;28;20463;-75
2023/08/13 07:31:05;;;;;;;13.43;3.90;;;19.50;99.90;;;;;;5062937;28;20048;-76
2023/08/13 07:33:31;;;;;;;7.97;3.10;;;19.60;99.90;;;;;;5051791;28;20032;-77
2023/08/13 07:36:00;;;;;;;12.50;3.80;;;19.70;99.90;;;;;;5066474;28;20106;-77
2023/08/13 07:38:25;;;;;;;9.45;3.30;;;19.80;99.90;;;;;;5068403;28;20102;-75
2023/08/13 07:40:51;;;;;;;9.48;3.10;;;19.80;99.90;;;;;;5063344;28;20511;-76
2023/08/13 07:43:17;;;;;;;14.63;4.00;;;19.90;99.90;;;;;;5066250;28;20119;-75
2023/08/13 07:45:42;;;;;;;8.48;3.28;;;20.10;99.90;;;;;;5061957;28;20066;-76
2023/08/13 07:48:09;;;;;;;11.65;3.45;;;20.20;99.90;;;;;;5069282;28;20047;-75
2023/08/13 07:50:34;;;;;;;10.70;3.20;;;20.30;99.90;;;;;;5071690;28;20038;-76
2023/08/13 07:53:00;;;;;;;9.77;3.25;;;20.40;99.90;;;;;;5065562;28;20147;-76
2023/08/13 07:55:25;;;;;;;10.63;3.63;;;20.30;99.90;;;;;;5054958;28;20043;-76
2023/08/13 07:57:51;;;;;;;11.82;3.30;;;20.30;99.90;;;;;;5073241;28;20046;-76
2023/08/13 08:00:16;;;;;;;11.57;3.30;;;20.60;99.90;;;;;;5073096;28;20040;-76
2023/08/13 08:02:42;;;;;;;9.15;2.88;;;20.80;99.90;;;;;;5074155;28;20032;-76
2023/08/13 08:05:09;;;;;;;11.18;3.08;;;21.00;99.90;;;;;;5075102;28;20136;-76
2023/08/13 08:07:35;;;;;;;10.10;2.90;;;21.10;99.90;;;;;;5075037;28;20035;-76
2023/08/13 08:10:01;;;;;;;9.40;3.03;;;21.20;99.90;;;;;;5056544;28;20374;-77
2023/08/13 08:12:27;;;;;;;11.45;3.28;;;21.30;99.90;;;;;;5069102;28;20059;-77
2023/08/13 08:14:53;;;;;;;5.30;2.50;;;21.20;99.90;;;;;;5070723;28;20413;-76
2023/08/13 08:17:18;;;;;;;7.43;2.60;;;21.10;99.90;;;;;;5075210;28;20051;-76
2023/08/13 08:19:44;;;;;;;10.85;2.95;;;21.00;99.90;;;;;;5075422;28;20028;-76
2023/08/13 08:22:09;;;;;;;9.43;3.03;;;21.10;99.90;;;;;;5074884;28;20171;-78
2023/08/13 08:24:35;;;;;;;10.38;3.03;;;21.20;99.90;;;;;;5058773;28;20109;-76
2023/08/13 08:27:01;;;;;;;8.75;2.53;;;21.20;99.90;;;;;;5073578;28;20043;-76
2023/08/13 08:29:26;;;;;;;7.90;2.60;;;21.40;99.90;;;;;;5073854;28;20039;-77
2023/08/13 08:31:52;;;;;;;9.50;2.50;;;21.60;99.90;;;;;;5077548;28;20094;-77
2023/08/13 08:34:17;;;;;;;8.88;2.75;;;21.80;99.90;;;;;;5079985;28;20044;-76
2023/08/13 08:36:43;;;;;;;10.18;2.78;;;21.80;99.90;;;;;;5076442;28;20054;-76
2023/08/13 08:39:08;;;;;;;10.68;2.83;;;22.00;99.90;;;;;;5075064;28;20133;-76
2023/08/13 08:41:36;;;;;;;10.65;2.85;;;21.90;99.90;;;;;;5073089;28;20036;-76
2023/08/13 08:44:02;;;;;;;7.53;2.30;;;21.70;99.90;;;;;;5085325;28;20089;-76
2023/08/13 08:46:29;;;;;;;9.15;2.50;;;21.60;99.90;;;;;;5072912;28;20044;-76
2023/08/13 08:48:55;;;;;;;7.80;2.42;;;21.70;99.90;;;;;;5077470;28;20031;-75
2023/08/13 08:51:24;;;;;;;11.73;2.75;;;21.70;99.90;;;;;;5074259;28;20082;-76
2023/08/13 08:53:50;;;;;;;7.35;2.13;;;21.80;99.90;;;;;;5074609;28;20085;-76
2023/08/13 08:56:16;;;;;;;11.43;2.47;;;21.70;99.90;;;;;;5072978;28;20560;-76
2023/08/13 08:58:41;;;;;;;6.30;2.15;;;21.60;99.90;;;;;;5074587;28;20036;-76
2023/08/13 09:01:07;;;;;;;9.60;2.60;;;21.40;99.90;;;;;;5073363;28;20483;-76
2023/08/13 09:03:32;;;;;;;9.50;2.35;;;21.40;99.90;;;;;;5073718;28;20031;-75
2023/08/13 09:05:58;;;;;;;10.98;2.42;;;21.40;99.90;;;;;;5073532;28;20517;-76
2023/08/13 09:08:25;;;;;;;8.77;2.33;;;21.50;99.90;;;;;;5073843;28;20155;-76
2023/08/13 09:10:50;;;;;;;9.32;2.55;;;21.40;99.90;;;;;;5073986;28;20040;-76
2023/08/13 09:13:16;;;;;;;8.18;2.28;;;21.30;99.90;;;;;;5073669;28;20040;-76
2023/08/13 09:15:47;;;;;;;5.68;1.92;;;21.00;99.90;;;;;;5073297;28;20426;-76
2023/08/13 09:18:13;;;;;;;10.93;2.33;;;21.10;99.90;;;;;;5076910;28;20115;-75
2023/08/13 09:20:44;;;;;;;7.20;2.10;;;21.10;99.90;;;;;;5080192;28;20127;-75
2023/08/13 09:23:10;;;;;;;6.18;2.10;;;21.10;99.90;;;;;;5073802;28;20043;-76
2023/08/13 09:25:36;;;;;;;8.68;2.05;;;21.10;99.90;;;;;;5073251;28;20404;-76
2023/08/13 09:28:02;;;;;;;7.30;1.90;;;21.00;99.90;;;;;;5084786;28;20118;-76
2023/08/13 09:30:31;;;;;;;6.78;2.60;;;21.10;99.90;;;;;;5072761;28;20551;-76
2023/08/13 09:32:58;;;;;;;5.95;2.10;;;21.30;99.90;;;;;;5078989;28;20443;-76
2023/08/13 09:35:25;;;;;;;8.75;2.20;;;21.40;99.90;;;;;;5074607;28;20036;-76
2023/08/13 09:37:52;;;;;;;7.97;2.08;;;21.50;99.90;;;;;;5072546;28;20042;-76
2023/08/13 09:40:18;;;;;;;7.80;2.17;;;21.40;99.90;;;;;;5071572;28;20078;-76
2023/08/13 09:42:45;;;;;;;8.30;2.17;;;21.40;99.90;;;;;;5066827;28;20107;-75
2023/08/13 09:45:14;;;;;;;6.65;2.22;;;21.40;99.90;;;;;;5068532;28;20070;-76
2023/08/13 09:47:43;;;;;;;9.27;2.25;;;21.40;99.90;;;;;;5069037;28;21796;-76
2023/08/13 09:50:11;;;;;;;6.30;1.95;;;21.60;99.90;;;;;;5070100;28;20495;-76
2023/08/13 09:52:38;;;;;;;10.50;2.00;;;21.70;99.90;;;;;;5068020;28;20424;-75
2023/08/13 09:55:08;;;;;;;8.02;2.10;;;21.70;99.90;;;;;;5067694;28;20075;-77
2023/08/13 09:57:36;;;;;;;7.53;2.03;;;21.60;99.90;;;;;;5068465;28;20036;-76
2023/08/13 10:00:02;;;;;;;7.28;2.05;;;21.60;99.90;;;;;;5071287;28;20517;-76
2023/08/13 10:02:29;;;;;;;7.53;2.08;;;21.60;99.90;;;;;;5070890;28;20040;-76
2023/08/13 10:04:55;;;;;;;7.45;2.08;;;21.70;99.90;;;;;;5071183;28;20032;-75
2023/08/13 10:07:22;;;;;;;7.18;1.98;;;21.80;99.90;;;;;;5071966;28;20382;-76
2023/08/13 10:09:49;;;;;;;6.05;1.73;;;21.90;99.90;;;;;;5073265;28;20036;-76
2023/08/13 10:12:14;;;;;;;8.43;1.80;;;21.90;99.90;;;;;;5072976;28;20040;-75
2023/08/13 10:14:41;;;;;;;4.97;1.58;;;21.90;99.90;;;;;;5072673;28;20047;-75
2023/08/13 10:17:07;;;;;;;6.82;1.50;;;21.90;99.90;;;;;;5072937;28;20044;-75
2023/08/13 10:19:40;;;;;;;5.72;1.70;;;21.90;99.90;;;;;;5073146;28;20040;-75
2023/08/13 10:22:08;;;;;;;6.00;1.80;;;21.90;99.90;;;;;;5072990;28;20449;-75
2023/08/13 10:24:35;;;;;;;7.03;1.63;;;22.00;99.90;;;;;;5073019;28;20563;-75
2023/08/13 10:27:00;;;;;;;6.45;1.73;;;22.10;99.90;;;;;;5055962;28;20114;-75
2023/08/13 10:29:36;;;;;;;5.38;1.90;;;22.10;99.90;;;;;;5073136;28;20119;-75
2023/08/13 10:32:12;;;;;;;4.63;1.70;;;22.10;99.90;;;;;;5072983;28;20118;-75
2023/08/13 10:34:39;;;;;;;6.88;2.00;;;22.10;99.90;;;;;;5064853;28;20092;-75
2023/08/13 10:37:16;;;;;;;5.90;1.77;;;22.10;99.90;;;;;;5072666;28;20044;-75
2023/08/13 10:39:42;;;;;;;5.85;2.10;;;22.20;99.90;;;;;;5072339;28;20035;-76
2023/08/13 10:42:33;;;;;;;6.30;1.80;;;22.40;99.90;;;;;;5072845;28;20044;-76
2023/08/13 10:45:07;;;;;;;7.40;1.67;;;22.60;99.90;;;;;;5059360;28;20040;-76
2023/08/13 10:47:49;;;;;;;;;;;22.80;99.90;;;;;;5072885;28;20086;-76
2023/08/13 10:50:22;;;;;;;6.32;1.65;;;22.60;99.90;;;;;;5072712;28;19916;-75
2023/08/13 10:52:55;;;;;;;4.60;1.80;;;22.50;99.90;;;;;;5090892;28;20116;-75
2023/08/13 10:55:24;;;;;;;4.80;1.65;;;22.50;99.90;;;;;;5072434;28;20081;-76
2023/08/13 10:57:53;;;;;;;4.95;1.70;;;22.70;99.90;;;;;;5055750;28;20115;-75
2023/08/13 11:00:22;;;;;;;7.28;2.22;;;22.80;99.90;;;;;;5072638;28;20411;-75
2023/08/13 11:03:00;;;;;;;6.10;1.80;;;22.80;99.90;;;;;;5072622;28;20081;-76
2023/08/13 11:05:27;;;;;;;6.40;2.00;;;22.70;99.90;;;;;;5072447;28;20036;-75
2023/08/13 11:07:52;;;;;;;4.60;1.77;;;22.60;99.90;;;;;;5072261;28;20045;-76
2023/08/13 11:10:19;;;;;;;5.47;1.67;;;22.60;99.90;;;;;;5055877;28;20505;-76
2023/08/13 11:12:46;;;;;;;5.88;1.73;;;22.80;99.90;;;;;;5072487;28;20040;-75
2023/08/13 11:15:12;;;;;;;7.93;2.10;;;22.90;99.90;;;;;;5055716;28;20036;-77
2023/08/13 11:17:48;;;;;;;6.90;1.80;;;23.00;99.90;;;;;;5072689;28;20044;-76
2023/08/13 11:20:17;;;;;;;5.03;1.63;;;23.20;99.90;;;;;;5077705;28;20085;-76
2023/08/13 11:22:42;;;;;;;5.97;1.88;;;23.30;99.90;;;;;;5072483;28;20086;-76
2023/08/13 11:25:09;;;;;;;6.60;1.70;;;23.40;99.90;;;;;;5073039;28;20067;-75
2023/08/13 11:27:35;;;;;;;9.73;2.08;;;23.40;99.90;;;;;;5079433;28;20064;-76
2023/08/13 11:30:01;;;;;;;6.68;1.98;;;23.40;99.90;;;;;;5076352;28;20079;-76
2023/08/13 11:32:27;;;;;;;4.68;1.60;;;23.70;99.90;;;;;;5076034;28;20067;-75
2023/08/13 11:34:52;;;;;;;5.50;1.73;;;23.80;99.90;;;;;;5076105;28;20043;-76
2023/08/13 11:37:18;;;;;;;3.50;1.45;;;23.90;99.90;;;;;;5075883;28;20118;-75
2023/08/13 11:39:44;;;;;;;4.28;1.58;;;23.90;99.90;;;;;;5076155;28;20047;-76
2023/08/13 11:42:10;;;;;;;6.93;1.88;;;23.90;99.90;;;;;;5075913;28;20052;-76
2023/08/13 11:44:37;;;;;;;3.80;1.40;;;23.70;99.90;;;;;;5075874;28;20519;-76
2023/08/13 11:47:04;;;;;;;6.60;1.60;;;23.70;99.90;;;;;;5075663;28;20059;-76
2023/08/13 11:49:31;;;;;;;3.80;1.38;;;23.60;99.90;;;;;;5075985;28;20040;-77
2023/08/13 11:51:57;;;;;;;4.15;1.60;;;23.50;99.90;;;;;;5075845;28;20046;-76
2023/08/13 11:54:24;;;;;;;5.03;1.63;;;23.50;99.90;;;;;;5075738;28;20123;-77
2023/08/13 11:56:53;;;;;;;5.13;1.73;;;23.60;99.90;;;;;;5075538;28;20165;-77
2023/08/13 11:59:24;;;;;;;2.42;1.27;;;23.80;99.90;;;;;;5075347;28;20044;-76
2023/08/13 12:01:52;;;;;;;4.70;1.45;;;23.80;99.90;;;;;;5075758;28;20043;-77
2023/08/13 12:04:17;;;;;;;5.85;1.65;;;23.80;99.90;;;;;;5075546;28;20036;-76
2023/08/13 12:06:46;;;;;;;5.18;1.73;;;23.90;99.90;;;;;;5075341;28;20116;-77
2023/08/13 12:09:13;;;;;;;5.05;1.48;;;23.90;99.90;;;;;;5075436;28;20039;-77
2023/08/13 12:11:39;;;;;;;5.63;1.48;;;23.80;99.90;;;;;;5067335;28;20036;-76
2023/08/13 12:14:08;;;;;;;3.75;1.33;;;23.80;99.90;;;;;;5075670;28;20211;-77
2023/08/13 12:16:34;;;;;;;3.17;1.08;;;23.70;99.90;;;;;;5082911;28;20036;-77
2023/08/13 12:19:02;;;;;;;6.10;1.60;;;23.70;99.90;;;;;;5075008;28;20465;-77
2023/08/13 12:21:27;;;;;;;4.00;1.20;;;23.70;99.90;;;;;;5072875;28;20403;-76
2023/08/13 12:23:53;;;;;;;5.32;1.35;;;23.70;99.90;;;;;;5074675;28;20032;-78
2023/08/13 12:26:18;;;;;;;5.13;1.17;;;23.70;99.90;;;;;;5072879;28;20036;-77
2023/08/13 12:28:50;;;;;;;3.30;1.10;;;23.70;99.90;;;;;;5073741;28;20113;-76
2023/08/13 12:31:18;;;;;;;5.75;1.30;;;23.60;99.90;;;;;;5081404;28;20089;-76
2023/08/13 12:33:45;;;;;;;3.85;1.00;;;23.70;99.90;;;;;;5074855;28;20035;-76
2023/08/13 12:36:10;;;;;;;5.00;1.30;;;23.80;99.90;;;;;;5074015;28;20036;-76
2023/08/13 12:38:39;;;;;;;4.70;1.33;;;23.90;99.90;;;;;;5076102;28;20069;-76
2023/08/13 12:41:05;;;;;;;3.03;1.00;;;24.00;99.90;;;;;;5065338;28;20040;-76